Time;durP1;ratioP1;P1;durP2;ratioP2;P2;SDS_P1;SDS_P2;PMS_P1;PMS_P2;Temp;Humidity;BMP_temperature;BMP_pressure;BME280_temperature;BME280_humidity;BME280_pressure;Samples;Min_cycle;Max_cycle;Signal;HPM_P1;HPM_P2
2024/01/15 00:02:19;;;;;;;13.45;12.75;;;;;;;;;;5033174;28;20045;-55
2024/01/15 00:04:45;;;;;;;13.60;12.90;;;;;;;;;;5037737;28;20723;-56
2024/01/15 00:07:10;;;;;;;13.55;12.85;;;;;;;;;;5038699;28;20416;-55
2024/01/15 00:09:35;;;;;;;14.27;13.57;;;;;;;;;;5031819;28;20064;-56
2024/01/15 00:12:01;;;;;;;13.68;12.98;;;;;;;;;;5026750;28;20591;-55
2024/01/15 00:14:26;;;;;;;13.30;12.70;;;;;;;;;;5023978;28;20017;-54
2024/01/15 00:16:54;;;;;;;13.50;12.80;;;;;;;;;;5036006;28;20050;-52
2024/01/15 00:19:20;;;;;;;12.35;11.75;;;;;;;;;;5034245;28;20053;-54
2024/01/15 00:21:45;;;;;;;13.13;12.43;;;;;;;;;;5037319;28;20033;-54
2024/01/15 00:24:10;;;;;;;13.05;12.35;;;;;;;;;;5042600;28;20056;-55
2024/01/15 00:26:36;;;;;;;13.13;12.43;;;;;;;;;;5028732;28;20029;-53
2024/01/15 00:29:02;;;;;;;12.98;12.27;;;;;;;;;;5034845;28;20167;-55
2024/01/15 00:31:29;;;;;;;13.75;13.05;;;;;;;;;;5032817;28;20026;-56
2024/01/15 00:33:55;;;;;;;13.10;12.40;;;;;;;;;;5035013;28;20025;-55
2024/01/15 00:36:20;;;;;;;12.88;12.18;;;;;;;;;;5038402;28;20021;-56
2024/01/15 00:38:47;;;;;;;13.45;12.75;;;;;;;;;;5040208;28;20140;-56
2024/01/15 00:41:13;;;;;;;12.32;11.73;;;;;;;;;;5038319;28;20032;-56
2024/01/15 00:43:38;;;;;;;12.65;12.05;;;;;;;;;;5025990;28;20034;-53
2024/01/15 00:46:03;;;;;;;12.68;12.07;;;;;;;;;;5035088;28;20057;-57
2024/01/15 00:48:29;;;;;;;13.30;12.60;;;;;;;;;;5032093;28;20411;-57
2024/01/15 00:50:54;;;;;;;14.02;13.23;;;;;;;;;;5034887;28;20040;-56
2024/01/15 00:53:21;;;;;;;12.43;11.82;;;;;;;;;;5036636;28;20013;-56
2024/01/15 00:55:47;;;;;;;12.57;11.98;;;;;;;;;;5040971;28;20424;-58
2024/01/15 00:58:12;;;;;;;13.15;12.45;;;;;;;;;;5033864;28;20052;-57
2024/01/15 01:00:38;;;;;;;12.85;12.15;;;;;;;;;;5036736;28;20029;-59
2024/01/15 01:03:03;;;;;;;13.40;12.70;;;;;;;;;;5032581;28;20030;-58
2024/01/15 01:05:28;;;;;;;12.60;12.00;;;;;;;;;;5032533;28;20033;-57
2024/01/15 01:07:54;;;;;;;12.85;12.25;;;;;;;;;;5035585;28;20033;-56
2024/01/15 01:10:19;;;;;;;12.98;12.35;;;;;;;;;;5033285;28;20392;-55
2024/01/15 01:12:44;;;;;;;13.65;12.95;;;;;;;;;;5033873;28;20540;-56
2024/01/15 01:15:10;;;;;;;12.75;12.15;;;;;;;;;;5031861;28;20022;-56
2024/01/15 01:17:35;;;;;;;13.68;12.98;;;;;;;;;;5030112;28;20117;-56
2024/01/15 01:20:04;;;;;;;13.13;12.52;;;;;;;;;;5033126;28;20028;-54
2024/01/15 01:22:29;;;;;;;13.07;12.38;;;;;;;;;;5030480;28;20064;-57
2024/01/15 01:24:55;;;;;;;13.32;12.63;;;;;;;;;;5032411;28;20072;-55
2024/01/15 01:27:20;;;;;;;13.10;12.48;;;;;;;;;;5021370;28;20017;-54
2024/01/15 01:29:45;;;;;;;14.27;13.48;;;;;;;;;;5031189;28;20057;-56
2024/01/15 01:32:11;;;;;;;13.52;12.82;;;;;;;;;;5031189;28;20504;-55
2024/01/15 01:34:41;;;;;;;14.02;13.30;;;;;;;;;;5034753;28;20028;-57
2024/01/15 01:37:07;;;;;;;14.30;13.50;;;;;;;;;;5034632;28;20033;-53
2024/01/15 01:39:32;;;;;;;14.77;13.98;;;;;;;;;;5033722;28;20033;-56
2024/01/15 01:41:57;;;;;;;14.90;14.10;;;;;;;;;;5039776;28;20539;-55
2024/01/15 01:44:23;;;;;;;14.35;13.65;;;;;;;;;;5032425;28;20053;-57
2024/01/15 01:46:48;;;;;;;15.38;14.57;;;;;;;;;;5040041;28;20381;-56
2024/01/15 01:49:13;;;;;;;16.10;15.25;;;;;;;;;;5021872;28;20498;-56
2024/01/15 01:51:39;;;;;;;16.17;15.27;;;;;;;;;;5044570;28;20010;-54
2024/01/15 01:54:05;;;;;;;16.90;16.00;;;;;;;;;;5042766;28;20016;-57
2024/01/15 01:56:30;;;;;;;16.33;15.52;;;;;;;;;;5027083;28;20030;-54
2024/01/15 01:58:56;;;;;;;15.90;15.10;;;;;;;;;;5026716;28;20049;-57
2024/01/15 02:01:21;;;;;;;15.55;14.75;;;;;;;;;;5025254;28;20028;-57
2024/01/15 02:03:47;;;;;;;16.05;15.25;;;;;;;;;;5028263;28;20100;-56
2024/01/15 02:06:12;;;;;;;16.17;15.38;;;;;;;;;;5038607;28;20021;-57
2024/01/15 02:08:38;;;;;;;16.70;15.80;;;;;;;;;;5033708;28;20041;-55
2024/01/15 02:11:03;;;;;;;16.52;15.73;;;;;;;;;;5039186;28;20025;-55
2024/01/15 02:13:29;;;;;;;17.35;16.45;;;;;;;;;;5033810;28;20021;-57
2024/01/15 02:15:54;;;;;;;17.85;16.95;;;;;;;;;;5031434;28;20082;-55
2024/01/15 02:18:20;;;;;;;16.95;16.05;;;;;;;;;;5021497;28;20088;-55
2024/01/15 02:20:45;;;;;;;16.58;15.70;;;;;;;;;;5031632;28;20029;-57
2024/01/15 02:23:11;;;;;;;15.35;14.65;;;;;;;;;;5034169;28;20123;-58
2024/01/15 02:25:41;;;;;;;16.30;15.43;;;;;;;;;;5029686;28;20469;-56
2024/01/15 02:28:07;;;;;;;16.73;15.82;;;;;;;;;;5031193;28;20022;-55
2024/01/15 02:30:34;;;;;;;16.35;15.55;;;;;;;;;;5029955;28;20026;-56
2024/01/15 02:32:59;;;;;;;15.85;15.05;;;;;;;;;;5031104;28;20025;-56
2024/01/15 02:35:25;;;;;;;15.20;14.50;;;;;;;;;;5031024;28;20105;-55
2024/01/15 02:37:50;;;;;;;16.73;15.93;;;;;;;;;;5031316;28;20041;-55
2024/01/15 02:40:15;;;;;;;16.45;15.55;;;;;;;;;;5039571;28;20021;-57
2024/01/15 02:42:41;;;;;;;16.70;15.85;;;;;;;;;;5031769;28;20017;-56
2024/01/15 02:45:06;;;;;;;16.80;15.90;;;;;;;;;;5031487;28;20136;-56
2024/01/15 02:47:32;;;;;;;16.25;15.43;;;;;;;;;;5042608;28;20087;-57
2024/01/15 02:49:57;;;;;;;16.95;16.13;;;;;;;;;;5047210;28;20033;-54
2024/01/15 02:52:22;;;;;;;15.88;15.07;;;;;;;;;;5035125;28;20056;-55
2024/01/15 02:54:48;;;;;;;17.20;16.27;;;;;;;;;;5032006;28;20022;-54
2024/01/15 02:57:13;;;;;;;16.10;15.30;;;;;;;;;;5030780;28;20021;-54
2024/01/15 02:59:38;;;;;;;16.60;15.80;;;;;;;;;;5031052;28;20489;-55
2024/01/15 03:02:04;;;;;;;17.63;16.73;;;;;;;;;;5032223;28;20051;-54
2024/01/15 03:04:29;;;;;;;15.85;15.05;;;;;;;;;;5030802;28;20373;-52
2024/01/15 03:06:54;;;;;;;18.05;17.02;;;;;;;;;;5033410;28;20408;-56
2024/01/15 03:09:20;;;;;;;17.38;16.48;;;;;;;;;;5039016;28;20074;-56
2024/01/15 03:11:45;;;;;;;17.02;16.23;;;;;;;;;;5053554;28;20116;-56
2024/01/15 03:14:10;;;;;;;16.40;15.60;;;;;;;;;;5046208;28;20164;-55
2024/01/15 03:16:36;;;;;;;16.95;16.15;;;;;;;;;;5034740;28;20072;-56
2024/01/15 03:19:01;;;;;;;17.95;16.95;;;;;;;;;;5033992;28;20639;-56
2024/01/15 03:21:26;;;;;;;17.52;16.55;;;;;;;;;;5033702;28;20022;-56
2024/01/15 03:23:52;;;;;;;16.45;15.65;;;;;;;;;;5047569;28;20028;-56
2024/01/15 03:26:17;;;;;;;16.55;15.75;;;;;;;;;;5030694;28;20028;-54
2024/01/15 03:28:42;;;;;;;17.75;16.85;;;;;;;;;;5034233;28;20092;-55
2024/01/15 03:31:07;;;;;;;17.05;16.25;;;;;;;;;;5028831;28;20102;-55
2024/01/15 03:33:33;;;;;;;18.73;17.73;;;;;;;;;;5035454;28;20056;-58
2024/01/15 03:35:59;;;;;;;18.08;17.17;;;;;;;;;;5040742;28;20104;-56
2024/01/15 03:38:24;;;;;;;18.55;17.55;;;;;;;;;;5034095;28;20014;-57
2024/01/15 03:40:49;;;;;;;19.23;18.23;;;;;;;;;;5034450;28;20029;-53
2024/01/15 03:43:15;;;;;;;18.25;17.25;;;;;;;;;;5032110;28;20021;-58
2024/01/15 03:45:40;;;;;;;18.58;17.58;;;;;;;;;;5033109;28;20021;-56
2024/01/15 03:48:05;;;;;;;19.27;18.30;;;;;;;;;;5034164;28;20014;-57
2024/01/15 03:50:31;;;;;;;18.33;17.42;;;;;;;;;;5032662;28;20033;-55
2024/01/15 03:52:56;;;;;;;18.58;17.65;;;;;;;;;;5036598;28;20116;-56
2024/01/15 03:55:21;;;;;;;17.45;16.55;;;;;;;;;;5032935;28;20017;-55
2024/01/15 03:57:47;;;;;;;20.90;19.80;;;;;;;;;;5023052;28;20018;-56
2024/01/15 04:00:14;;;;;;;18.35;17.45;;;;;;;;;;5031867;28;20117;-57
2024/01/15 04:02:39;;;;;;;18.63;17.73;;;;;;;;;;5034562;28;20026;-58
2024/01/15 04:05:05;;;;;;;19.13;18.13;;;;;;;;;;5036540;28;20017;-57
2024/01/15 04:07:30;;;;;;;19.02;18.02;;;;;;;;;;5023902;28;20022;-55
2024/01/15 04:09:55;;;;;;;18.75;17.75;;;;;;;;;;5033354;28;20044;-57
2024/01/15 04:12:21;;;;;;;19.38;18.38;;;;;;;;;;5033244;28;20062;-55
2024/01/15 04:14:46;;;;;;;17.73;16.83;;;;;;;;;;5033582;28;20477;-55
2024/01/15 04:17:12;;;;;;;18.02;17.05;;;;;;;;;;5031857;28;20057;-56
2024/01/15 04:19:37;;;;;;;18.02;17.13;;;;;;;;;;5027382;28;20131;-55
2024/01/15 04:22:02;;;;;;;18.30;17.33;;;;;;;;;;5035553;28;20055;-58
2024/01/15 04:24:28;;;;;;;18.73;17.80;;;;;;;;;;5034369;28;20059;-55
2024/01/15 04:26:53;;;;;;;19.35;18.35;;;;;;;;;;5033543;28;20026;-57
2024/01/15 04:29:18;;;;;;;19.42;18.42;;;;;;;;;;5035812;28;20037;-56
2024/01/15 04:31:43;;;;;;;19.80;18.80;;;;;;;;;;5030944;28;20053;-56
2024/01/15 04:34:09;;;;;;;19.55;18.55;;;;;;;;;;5043050;28;20021;-58
2024/01/15 04:36:41;;;;;;;19.10;18.10;;;;;;;;;;5042583;28;20120;-57
2024/01/15 04:39:07;;;;;;;20.13;19.02;;;;;;;;;;5041768;28;20595;-56
2024/01/15 04:41:32;;;;;;;20.20;19.10;;;;;;;;;;5030319;28;20017;-56
2024/01/15 04:44:00;;;;;;;19.55;18.55;;;;;;;;;;5041623;28;20529;-57
2024/01/15 04:46:25;;;;;;;19.38;18.38;;;;;;;;;;5037723;28;20022;-57
2024/01/15 04:48:50;;;;;;;19.85;18.75;;;;;;;;;;5043855;28;20089;-56
2024/01/15 04:51:16;;;;;;;21.13;20.02;;;;;;;;;;5035460;28;20024;-58
2024/01/15 04:53:41;;;;;;;20.70;19.58;;;;;;;;;;5035942;28;20048;-57
2024/01/15 04:56:06;;;;;;;21.25;20.17;;;;;;;;;;5030333;28;20036;-53
2024/01/15 04:58:32;;;;;;;21.00;19.90;;;;;;;;;;5037801;28;20021;-57
2024/01/15 05:00:57;;;;;;;20.33;19.30;;;;;;;;;;5035708;28;20028;-54
2024/01/15 05:03:22;;;;;;;20.15;19.05;;;;;;;;;;5029459;28;20072;-58
2024/01/15 05:05:48;;;;;;;20.23;19.13;;;;;;;;;;5028035;28;20493;-57
2024/01/15 05:08:13;;;;;;;19.55;18.55;;;;;;;;;;5037717;28;20029;-56
2024/01/15 05:10:40;;;;;;;21.20;20.10;;;;;;;;;;5034864;28;20027;-55
2024/01/15 05:13:05;;;;;;;22.35;21.08;;;;;;;;;;5034465;28;20024;-55
2024/01/15 05:15:30;;;;;;;21.20;20.00;;;;;;;;;;5033690;28;20108;-55
2024/01/15 05:17:56;;;;;;;20.08;19.08;;;;;;;;;;5029062;28;20409;-56
2024/01/15 05:20:21;;;;;;;21.80;20.60;;;;;;;;;;5026805;28;20168;-56
2024/01/15 05:22:47;;;;;;;21.77;20.58;;;;;;;;;;5032176;28;20108;-54
2024/01/15 05:25:12;;;;;;;20.83;19.65;;;;;;;;;;5042372;28;20474;-57
2024/01/15 05:27:37;;;;;;;20.10;19.00;;;;;;;;;;5040305;28;20021;-57
2024/01/15 05:30:03;;;;;;;20.30;19.20;;;;;;;;;;5034925;28;20493;-55
2024/01/15 05:32:30;;;;;;;19.45;18.45;;;;;;;;;;5042934;28;20029;-57
2024/01/15 05:34:55;;;;;;;21.63;20.40;;;;;;;;;;5044108;28;20025;-54
2024/01/15 05:37:21;;;;;;;20.75;19.65;;;;;;;;;;5029460;28;20036;-55
2024/01/15 05:39:46;;;;;;;19.73;18.73;;;;;;;;;;5028443;28;20060;-56
2024/01/15 05:42:11;;;;;;;20.80;19.70;;;;;;;;;;5028413;28;20409;-57
2024/01/15 05:44:37;;;;;;;21.52;20.42;;;;;;;;;;5028844;28;20436;-56
2024/01/15 05:47:03;;;;;;;19.85;18.85;;;;;;;;;;5029339;28;20350;-56
2024/01/15 05:49:29;;;;;;;21.17;20.00;;;;;;;;;;5027666;28;20029;-55
2024/01/15 05:51:54;;;;;;;22.13;20.85;;;;;;;;;;5029358;28;20615;-56
2024/01/15 05:54:20;;;;;;;18.73;17.73;;;;;;;;;;5023956;28;20029;-54
2024/01/15 05:56:45;;;;;;;20.33;19.23;;;;;;;;;;5024661;28;20056;-57
2024/01/15 05:59:10;;;;;;;18.77;17.77;;;;;;;;;;5029788;28;20045;-56
2024/01/15 06:01:36;;;;;;;19.95;18.85;;;;;;;;;;5027264;28;20017;-55
2024/01/15 06:04:01;;;;;;;20.30;19.20;;;;;;;;;;5032000;28;20026;-57
2024/01/15 06:06:27;;;;;;;20.13;19.02;;;;;;;;;;5022659;28;20014;-58
2024/01/15 06:08:53;;;;;;;19.48;18.45;;;;;;;;;;5020898;28;20453;-58
2024/01/15 06:11:18;;;;;;;18.50;17.50;;;;;;;;;;5027190;28;20037;-56
2024/01/15 06:13:43;;;;;;;18.92;17.92;;;;;;;;;;5032675;28;20013;-56
2024/01/15 06:16:16;;;;;;;19.92;18.83;;;;;;;;;;5030378;28;20033;-54
2024/01/15 06:18:41;;;;;;;18.70;17.67;;;;;;;;;;5022724;28;20045;-52
2024/01/15 06:21:07;;;;;;;17.42;16.48;;;;;;;;;;5024264;28;20396;-55
2024/01/15 06:23:32;;;;;;;17.85;16.85;;;;;;;;;;5026396;28;20113;-56
2024/01/15 06:25:57;;;;;;;16.95;16.05;;;;;;;;;;5025343;28;20080;-56
2024/01/15 06:28:23;;;;;;;17.67;16.67;;;;;;;;;;5026141;28;20049;-58
2024/01/15 06:30:48;;;;;;;17.02;16.10;;;;;;;;;;5032752;28;20112;-56
2024/01/15 06:33:13;;;;;;;16.20;15.32;;;;;;;;;;5031085;28;20021;-57
2024/01/15 06:35:39;;;;;;;16.63;15.82;;;;;;;;;;5040710;28;20099;-54
2024/01/15 06:38:04;;;;;;;16.33;15.52;;;;;;;;;;5044556;28;20112;-54
2024/01/15 06:40:30;;;;;;;16.83;15.82;;;;;;;;;;5022812;28;20029;-55
2024/01/15 06:42:55;;;;;;;14.90;14.10;;;;;;;;;;5026861;28;20397;-55
2024/01/15 06:45:20;;;;;;;15.80;14.85;;;;;;;;;;5029791;28;20061;-56
2024/01/15 06:47:45;;;;;;;13.02;12.32;;;;;;;;;;5030041;28;20030;-56
2024/01/15 06:50:11;;;;;;;13.00;12.20;;;;;;;;;;5026142;28;20033;-51
2024/01/15 06:52:36;;;;;;;11.93;11.32;;;;;;;;;;5021743;28;20030;-57
2024/01/15 06:55:02;;;;;;;12.43;11.73;;;;;;;;;;5023067;28;20025;-60
2024/01/15 06:57:27;;;;;;;11.32;10.73;;;;;;;;;;5031599;28;20024;-57
2024/01/15 06:59:53;;;;;;;11.07;10.48;;;;;;;;;;5022735;28;20033;-57
2024/01/15 07:02:18;;;;;;;12.05;11.35;;;;;;;;;;5025643;28;20109;-59
2024/01/15 07:04:43;;;;;;;11.95;11.25;;;;;;;;;;5028084;28;20840;-56
2024/01/15 07:07:08;;;;;;;11.82;11.23;;;;;;;;;;5031933;28;20017;-57
2024/01/15 07:09:34;;;;;;;11.57;10.98;;;;;;;;;;5024953;28;20026;-57
2024/01/15 07:11:59;;;;;;;11.65;11.05;;;;;;;;;;5022875;28;20034;-55
2024/01/15 07:14:24;;;;;;;11.18;10.57;;;;;;;;;;5026237;28;20105;-59
2024/01/15 07:16:50;;;;;;;11.55;10.95;;;;;;;;;;5024240;28;20080;-57
2024/01/15 07:19:15;;;;;;;12.18;11.52;;;;;;;;;;5029874;28;20584;-58
2024/01/15 07:21:42;;;;;;;12.82;12.13;;;;;;;;;;5026262;28;20037;-55
2024/01/15 07:24:08;;;;;;;12.85;12.15;;;;;;;;;;5030598;28;20017;-57
2024/01/15 07:26:33;;;;;;;13.02;12.32;;;;;;;;;;5030515;28;20101;-55
2024/01/15 07:28:58;;;;;;;12.02;11.43;;;;;;;;;;5032748;28;20025;-58
2024/01/15 07:31:24;;;;;;;13.00;12.20;;;;;;;;;;5027666;28;20449;-58
2024/01/15 07:33:49;;;;;;;12.55;11.85;;;;;;;;;;5029826;28;20652;-56
2024/01/15 07:36:14;;;;;;;12.68;11.98;;;;;;;;;;5040460;28;20482;-58
2024/01/15 07:38:40;;;;;;;12.82;12.13;;;;;;;;;;5038194;28;20017;-54
2024/01/15 07:41:06;;;;;;;13.82;13.02;;;;;;;;;;5042472;28;20021;-57
2024/01/15 07:43:31;;;;;;;12.57;11.88;;;;;;;;;;5037404;28;20025;-53
2024/01/15 07:45:57;;;;;;;14.57;13.68;;;;;;;;;;5036459;28;20125;-56
2024/01/15 07:48:22;;;;;;;12.07;11.43;;;;;;;;;;5029924;28;20922;-56
2024/01/15 07:50:47;;;;;;;14.00;13.10;;;;;;;;;;5026793;28;20577;-57
2024/01/15 07:53:13;;;;;;;13.20;12.40;;;;;;;;;;5026279;28;20489;-64
2024/01/15 07:55:38;;;;;;;12.90;12.10;;;;;;;;;;5029594;28;20516;-61
2024/01/15 07:58:04;;;;;;;12.27;11.57;;;;;;;;;;5031280;28;20025;-60
2024/01/15 08:00:29;;;;;;;11.80;11.20;;;;;;;;;;5031416;28;20024;-62
2024/01/15 08:02:55;;;;;;;11.65;11.00;;;;;;;;;;5034683;28;20439;-64
2024/01/15 08:05:20;;;;;;;10.98;10.38;;;;;;;;;;5038200;28;20105;-62
2024/01/15 08:07:46;;;;;;;11.57;10.93;;;;;;;;;;5032145;28;20652;-64
2024/01/15 08:10:13;;;;;;;11.88;11.18;;;;;;;;;;5033820;28;20105;-64
2024/01/15 08:12:39;;;;;;;11.88;11.20;;;;;;;;;;5027692;28;20057;-61
2024/01/15 08:15:05;;;;;;;11.65;11.05;;;;;;;;;;5029888;28;20037;-62
2024/01/15 08:17:32;;;;;;;12.38;11.68;;;;;;;;;;5035495;28;20060;-64
2024/01/15 08:19:59;;;;;;;12.18;11.48;;;;;;;;;;5036408;28;20031;-63
2024/01/15 08:22:24;;;;;;;11.18;10.57;;;;;;;;;;5026193;28;20032;-64
2024/01/15 08:24:50;;;;;;;11.75;11.05;;;;;;;;;;5033557;28;20030;-61
2024/01/15 08:27:15;;;;;;;11.10;10.50;;;;;;;;;;5023778;28;20698;-63
2024/01/15 08:29:41;;;;;;;11.40;10.80;;;;;;;;;;5024135;28;20038;-62
2024/01/15 08:32:06;;;;;;;11.15;10.55;;;;;;;;;;5031348;28;20029;-61
2024/01/15 08:34:31;;;;;;;10.85;10.35;;;;;;;;;;5033805;28;20032;-63
2024/01/15 08:36:59;;;;;;;11.10;10.50;;;;;;;;;;5027055;28;20025;-64
2024/01/15 08:39:24;;;;;;;10.88;10.30;;;;;;;;;;5031300;28;20504;-62
2024/01/15 08:41:49;;;;;;;10.70;10.20;;;;;;;;;;5032870;28;20029;-63
2024/01/15 08:44:15;;;;;;;10.95;10.35;;;;;;;;;;5031665;28;20036;-63
2024/01/15 08:46:40;;;;;;;11.70;11.07;;;;;;;;;;5033095;28;20064;-63
2024/01/15 08:49:05;;;;;;;11.70;11.05;;;;;;;;;;5025502;28;20030;-64
2024/01/15 08:51:31;;;;;;;10.55;10.05;;;;;;;;;;5032958;28;20036;-63
2024/01/15 08:53:56;;;;;;;11.25;10.65;;;;;;;;;;5029330;28;20449;-61
2024/01/15 08:56:22;;;;;;;10.88;10.32;;;;;;;;;;5032466;28;20026;-63
2024/01/15 08:58:47;;;;;;;10.73;10.23;;;;;;;;;;5032829;28;20465;-63
2024/01/15 09:01:12;;;;;;;11.55;10.95;;;;;;;;;;5037259;28;20504;-63
2024/01/15 09:03:38;;;;;;;10.55;10.05;;;;;;;;;;5031333;28;20025;-64
2024/01/15 09:06:03;;;;;;;10.50;10.00;;;;;;;;;;5037095;28;20625;-62
2024/01/15 09:08:28;;;;;;;10.45;9.95;;;;;;;;;;5033180;28;20116;-62
2024/01/15 09:10:54;;;;;;;10.70;10.20;;;;;;;;;;5035760;28;20107;-60
2024/01/15 09:13:19;;;;;;;11.10;10.50;;;;;;;;;;5030475;28;20562;-61
2024/01/15 09:15:44;;;;;;;10.73;10.23;;;;;;;;;;5033941;28;20495;-63
2024/01/15 09:18:10;;;;;;;11.18;10.57;;;;;;;;;;5029260;28;20046;-63
2024/01/15 09:20:35;;;;;;;12.15;11.45;;;;;;;;;;5028680;28;20129;-62
2024/01/15 09:23:00;;;;;;;11.88;11.27;;;;;;;;;;5031883;28;20025;-62
2024/01/15 09:25:26;;;;;;;11.77;11.18;;;;;;;;;;5032629;28;20460;-62
2024/01/15 09:27:51;;;;;;;11.70;11.10;;;;;;;;;;5035130;28;20345;-64
2024/01/15 09:30:17;;;;;;;11.73;11.13;;;;;;;;;;5032953;28;20056;-63
2024/01/15 09:32:42;;;;;;;11.85;11.25;;;;;;;;;;5030490;28;20143;-62
2024/01/15 09:35:08;;;;;;;12.15;11.45;;;;;;;;;;5031979;28;20076;-61
2024/01/15 09:37:33;;;;;;;11.48;10.88;;;;;;;;;;5021690;28;20022;-62
2024/01/15 09:39:58;;;;;;;12.38;11.68;;;;;;;;;;5026700;28;20035;-61
2024/01/15 09:42:24;;;;;;;12.55;11.85;;;;;;;;;;5030143;28;20022;-61
2024/01/15 09:44:50;;;;;;;12.80;12.07;;;;;;;;;;5034243;28;20036;-61
2024/01/15 09:47:17;;;;;;;12.38;11.68;;;;;;;;;;5023495;28;20405;-62
2024/01/15 09:49:42;;;;;;;11.52;10.93;;;;;;;;;;5029996;28;20025;-63
2024/01/15 09:52:07;;;;;;;12.05;11.40;;;;;;;;;;5031836;28;20022;-62
2024/01/15 09:54:33;;;;;;;11.30;10.70;;;;;;;;;;5032253;28;20017;-63
2024/01/15 09:57:00;;;;;;;11.30;10.70;;;;;;;;;;5027920;28;20033;-62
2024/01/15 09:59:25;;;;;;;11.30;10.70;;;;;;;;;;5034580;28;20067;-63
2024/01/15 10:01:52;;;;;;;11.27;10.68;;;;;;;;;;5029598;28;20026;-63
2024/01/15 10:04:19;;;;;;;10.90;10.40;;;;;;;;;;5033110;28;20113;-62
2024/01/15 10:06:45;;;;;;;12.13;11.43;;;;;;;;;;5029761;28;20104;-61
2024/01/15 10:09:14;;;;;;;11.45;10.85;;;;;;;;;;5032269;28;20037;-61
2024/01/15 10:11:39;;;;;;;10.70;10.20;;;;;;;;;;5021843;28;20454;-62
2024/01/15 10:14:05;;;;;;;11.25;10.65;;;;;;;;;;5029856;28;20056;-62
2024/01/15 10:16:30;;;;;;;11.10;10.50;;;;;;;;;;5027001;28;20024;-62
2024/01/15 10:18:55;;;;;;;10.52;10.02;;;;;;;;;;5027741;28;20532;-63
2024/01/15 10:21:21;;;;;;;10.90;10.40;;;;;;;;;;5028540;28;20037;-63
2024/01/15 10:23:46;;;;;;;10.32;9.82;;;;;;;;;;5031458;28;20029;-61
2024/01/15 10:26:12;;;;;;;11.25;10.65;;;;;;;;;;5035771;28;20045;-61
2024/01/15 10:28:37;;;;;;;12.25;11.57;;;;;;;;;;5031134;28;20033;-63
2024/01/15 10:31:02;;;;;;;12.10;11.50;;;;;;;;;;5023474;28;20488;-61
2024/01/15 10:33:28;;;;;;;10.90;10.30;;;;;;;;;;5029563;28;20014;-62
2024/01/15 10:35:54;;;;;;;10.75;10.25;;;;;;;;;;5029227;28;20079;-62
2024/01/15 10:38:21;;;;;;;11.20;10.60;;;;;;;;;;5027590;28;20511;-62
2024/01/15 10:40:47;;;;;;;11.02;10.43;;;;;;;;;;5029577;28;20037;-62
2024/01/15 10:43:12;;;;;;;11.20;10.60;;;;;;;;;;5027468;28;20090;-61
2024/01/15 10:45:38;;;;;;;10.98;10.38;;;;;;;;;;5020159;28;20029;-62
2024/01/15 10:48:03;;;;;;;10.00;9.50;;;;;;;;;;5018670;28;20021;-61
2024/01/15 10:50:29;;;;;;;10.43;9.93;;;;;;;;;;5025564;28;20087;-61
2024/01/15 10:52:55;;;;;;;10.15;9.65;;;;;;;;;;5023360;28;20071;-62
2024/01/15 10:55:20;;;;;;;10.20;9.70;;;;;;;;;;5030476;28;20021;-63
2024/01/15 10:57:48;;;;;;;10.40;9.90;;;;;;;;;;5040729;28;20029;-63
2024/01/15 11:00:14;;;;;;;11.10;10.50;;;;;;;;;;5024992;28;20037;-64
2024/01/15 11:02:40;;;;;;;9.93;9.45;;;;;;;;;;5019291;28;20029;-62
2024/01/15 11:05:05;;;;;;;10.13;9.63;;;;;;;;;;5020488;28;20033;-62
2024/01/15 11:07:32;;;;;;;10.13;9.63;;;;;;;;;;5030786;28;20071;-62
2024/01/15 11:10:00;;;;;;;10.32;9.82;;;;;;;;;;5029332;28;20120;-63
2024/01/15 11:12:26;;;;;;;9.90;9.50;;;;;;;;;;5040992;28;20013;-63
2024/01/15 11:15:01;;;;;;;11.07;10.48;;;;;;;;;;5030057;28;20029;-61
2024/01/15 11:17:27;;;;;;;10.27;9.77;;;;;;;;;;5024220;28;20092;-61
2024/01/15 11:19:52;;;;;;;12.05;11.38;;;;;;;;;;5029383;28;20033;-61
2024/01/15 11:22:30;;;;;;;10.38;9.88;;;;;;;;;;5025727;28;20091;-61
2024/01/15 11:24:55;;;;;;;10.63;10.13;;;;;;;;;;5026661;28;20030;-62
2024/01/15 11:27:42;;;;;;;11.15;10.57;;;;;;;;;;5032820;28;20033;-61
2024/01/15 11:30:14;;;;;;;10.80;10.30;;;;;;;;;;5028849;28;20013;-60
2024/01/15 11:32:41;;;;;;;11.70;11.10;;;;;;;;;;5028237;28;20041;-61
2024/01/15 11:35:08;;;;;;;12.38;11.73;;;;;;;;;;5031359;28;20391;-63
2024/01/15 11:37:54;;;;;;;11.13;10.57;;;;;;;;;;5033929;28;20021;-63
2024/01/15 11:40:42;;;;;;;10.85;10.35;;;;;;;;;;5028215;28;20396;-62
2024/01/15 11:43:09;;;;;;;11.10;10.55;;;;;;;;;;5037182;28;20029;-62
2024/01/15 11:45:34;;;;;;;12.70;12.00;;;;;;;;;;5028533;28;20484;-62
2024/01/15 11:48:00;;;;;;;11.40;10.80;;;;;;;;;;5035198;28;20033;-62
2024/01/15 11:50:26;;;;;;;11.50;10.90;;;;;;;;;;5035140;28;20021;-62
2024/01/15 11:52:58;;;;;;;11.05;10.55;;;;;;;;;;5023702;28;20100;-62
2024/01/15 11:55:29;;;;;;;11.00;10.50;;;;;;;;;;5036936;28;20159;-61
2024/01/15 11:57:55;;;;;;;11.32;10.73;;;;;;;;;;5029552;28;20025;-61
2024/01/15 12:00:23;;;;;;;11.02;10.52;;;;;;;;;;5033185;28;20527;-63
2024/01/15 12:02:50;;;;;;;11.35;10.77;;;;;;;;;;5035654;28;20053;-62
2024/01/15 12:05:17;;;;;;;10.45;9.95;;;;;;;;;;5033985;28;20417;-62
2024/01/15 12:07:43;;;;;;;10.82;10.32;;;;;;;;;;5034438;28;20029;-62
2024/01/15 12:10:12;;;;;;;10.65;10.15;;;;;;;;;;5040032;28;20029;-61
2024/01/15 12:12:46;;;;;;;12.43;11.73;;;;;;;;;;5035854;28;20060;-61
2024/01/15 12:15:11;;;;;;;11.82;11.23;;;;;;;;;;5018925;28;20022;-60
2024/01/15 12:17:36;;;;;;;11.00;10.50;;;;;;;;;;5026781;28;20052;-60
2024/01/15 12:20:03;;;;;;;11.70;11.10;;;;;;;;;;5032712;28;20048;-61
2024/01/15 12:22:28;;;;;;;11.60;11.00;;;;;;;;;;5032621;28;20489;-61
2024/01/15 12:24:54;;;;;;;11.80;11.20;;;;;;;;;;5033293;28;20040;-61
2024/01/15 12:27:20;;;;;;;11.70;11.10;;;;;;;;;;5041054;28;20025;-61
2024/01/15 12:29:45;;;;;;;11.38;10.77;;;;;;;;;;5027510;28;20044;-60
2024/01/15 12:32:11;;;;;;;10.65;10.15;;;;;;;;;;5033825;28;20022;-62
2024/01/15 12:34:37;;;;;;;11.88;11.27;;;;;;;;;;5032908;28;20049;-62
2024/01/15 12:37:03;;;;;;;12.15;11.55;;;;;;;;;;5027568;28;20049;-60
2024/01/15 12:39:28;;;;;;;11.63;11.02;;;;;;;;;;5029760;28;20029;-59
2024/01/15 12:41:53;;;;;;;11.23;10.68;;;;;;;;;;5034295;28;20033;-61
2024/01/15 12:44:19;;;;;;;10.65;10.15;;;;;;;;;;5032284;28;20021;-60
2024/01/15 12:46:44;;;;;;;14.07;13.27;;;;;;;;;;5027180;28;20556;-61
2024/01/15 12:49:10;;;;;;;12.50;11.88;;;;;;;;;;5017852;28;20027;-62
2024/01/15 12:51:35;;;;;;;13.10;12.40;;;;;;;;;;5030118;28;20132;-61
2024/01/15 12:54:00;;;;;;;11.73;11.13;;;;;;;;;;5031398;28;20028;-59
2024/01/15 12:56:26;;;;;;;11.68;11.07;;;;;;;;;;5030598;28;20029;-59
2024/01/15 12:58:51;;;;;;;11.48;10.88;;;;;;;;;;5032876;28;20017;-61
2024/01/15 13:01:16;;;;;;;12.00;11.40;;;;;;;;;;5031145;28;20017;-59
2024/01/15 13:03:42;;;;;;;12.30;11.68;;;;;;;;;;5041496;28;20039;-59
2024/01/15 13:06:07;;;;;;;11.95;11.35;;;;;;;;;;5036319;28;20036;-60
2024/01/15 13:08:32;;;;;;;11.45;10.85;;;;;;;;;;5037385;28;20029;-59
2024/01/15 13:10:58;;;;;;;15.60;14.65;;;;;;;;;;5028784;28;20045;-60
2024/01/15 13:13:23;;;;;;;12.98;12.27;;;;;;;;;;5041545;28;20048;-60
2024/01/15 13:15:48;;;;;;;13.07;12.38;;;;;;;;;;5040396;28;20029;-63
2024/01/15 13:18:14;;;;;;;12.75;12.05;;;;;;;;;;5025266;28;20103;-61
2024/01/15 13:20:39;;;;;;;12.13;11.52;;;;;;;;;;5024470;28;20026;-61
2024/01/15 13:23:05;;;;;;;14.57;13.73;;;;;;;;;;5018438;28;20032;-58
2024/01/15 13:25:30;;;;;;;13.23;12.52;;;;;;;;;;5025760;28;20035;-62
2024/01/15 13:27:56;;;;;;;11.80;11.20;;;;;;;;;;5018055;28;20033;-64
2024/01/15 13:30:21;;;;;;;11.93;11.32;;;;;;;;;;5023434;28;20061;-61
2024/01/15 13:32:46;;;;;;;11.82;11.23;;;;;;;;;;5021907;28;20025;-63
2024/01/15 13:35:13;;;;;;;11.73;11.13;;;;;;;;;;5031903;28;20493;-62
2024/01/15 13:37:41;;;;;;;11.85;11.25;;;;;;;;;;5025933;28;20021;-63
2024/01/15 13:40:08;;;;;;;12.18;11.57;;;;;;;;;;5025614;28;20135;-63
2024/01/15 13:42:33;;;;;;;12.05;11.45;;;;;;;;;;5018636;28;20528;-63
2024/01/15 13:44:59;;;;;;;10.85;10.35;;;;;;;;;;5027965;28;20057;-62
2024/01/15 13:47:24;;;;;;;10.75;10.25;;;;;;;;;;5028341;28;20033;-63
2024/01/15 13:49:50;;;;;;;12.13;11.52;;;;;;;;;;5027244;28;20026;-64
2024/01/15 13:52:15;;;;;;;11.60;11.00;;;;;;;;;;5019123;28;20027;-62
2024/01/15 13:54:40;;;;;;;11.27;10.68;;;;;;;;;;5024313;28;20041;-63
2024/01/15 13:57:06;;;;;;;10.98;10.48;;;;;;;;;;5033750;28;20045;-63
2024/01/15 13:59:32;;;;;;;10.77;10.27;;;;;;;;;;5025130;28;20029;-62
2024/01/15 14:01:57;;;;;;;10.40;9.90;;;;;;;;;;5026525;28;20100;-62
2024/01/15 14:04:22;;;;;;;11.30;10.70;;;;;;;;;;5027827;28;20120;-62
2024/01/15 14:06:48;;;;;;;11.45;10.85;;;;;;;;;;5027278;28;20071;-64
2024/01/15 14:09:14;;;;;;;10.40;9.90;;;;;;;;;;5031344;28;20037;-63
2024/01/15 14:11:40;;;;;;;10.85;10.35;;;;;;;;;;5032798;28;20033;-61